Nolinsk, Russia
Current Conditions -  °F | °C
As of 12:30 AM on Sunday 26 Oct 2014 (Local Time) from UWKD Reporting Station
Light Snow Light Snow  
Wind Chill:   Ceiling: 2700
Heat Index: 21°   Visibility: 6mi
Dew Point: 14°   Wind: 13mph
Humidity: 74%   Direction: 340°NNW
Pressure: 30.48"   Gusts: 20mph
Location:  57.56°N, 49.94°E
Report Text: UWKD 252030Z 34006G09MPS 9999 -SN DRSN OVC027 M06/M10 Q1032 WSRWY29 R29/8/0060 NOSIG RMK QFE762/1017
Loading
Personal Weather Stations






























Interactive Weather Map
Tropical Storm Tracking
New forecast layout! Learn more

10-Day Weather Forecast

Advertisements
Track Severe Weather on mobile